Time;durP1;ratioP1;P1;durP2;ratioP2;P2;SDS_P1;SDS_P2;PMS_P1;PMS_P2;Temp;Humidity;BMP_temperature;BMP_pressure;BME280_temperature;BME280_humidity;BME280_pressure;Samples;Min_cycle;Max_cycle;Signal;HPM_P1;HPM_P2
2023/02/22 00:01:34;;;;;;;7.32;3.85;;;;;;;2.68;100.00;97172.47;5058435;28;20275;-60
2023/02/22 00:04:03;;;;;;;10.05;5.57;;;;;;;2.56;100.00;97170.44;5059173;28;20608;-57
2023/02/22 00:06:30;;;;;;;13.82;5.57;;;;;;;2.45;100.00;97169.19;5057005;28;20249;-60
2023/02/22 00:08:57;;;;;;;9.63;4.75;;;;;;;2.51;100.00;97167.53;5055830;28;20452;-60
2023/02/22 00:11:24;;;;;;;11.18;4.97;;;;;;;2.57;100.00;97166.72;5055778;28;20370;-59
2023/02/22 00:13:51;;;;;;;12.15;6.05;;;;;;;2.57;100.00;97165.88;5060757;28;20086;-58
2023/02/22 00:16:20;;;;;;;15.32;6.18;;;;;;;2.54;100.00;97159.09;5057755;28;20101;-59
2023/02/22 00:18:49;;;;;;;10.30;5.32;;;;;;;2.66;100.00;97158.50;5053939;28;20036;-59
2023/02/22 00:21:17;;;;;;;12.43;5.93;;;;;;;2.70;100.00;97157.84;5057187;28;20037;-59
2023/02/22 00:23:46;;;;;;;10.90;5.35;;;;;;;2.66;100.00;97159.34;5063546;28;20119;-60
2023/02/22 00:26:17;;;;;;;8.98;4.75;;;;;;;2.67;100.00;97158.28;5057570;28;20044;-60
2023/02/22 00:28:46;;;;;;;;;;;;;;;2.64;100.00;97153.34;5053842;28;20033;-60
2023/02/22 00:31:13;;;;;;;11.65;5.20;;;;;;;2.62;100.00;97147.41;5062295;28;19956;-59
2023/02/22 00:33:41;;;;;;;10.63;5.15;;;;;;;2.62;100.00;97146.56;5052227;28;20053;-61
2023/02/22 00:36:10;;;;;;;6.60;4.10;;;;;;;2.60;100.00;97150.28;5058423;28;20127;-60
2023/02/22 00:38:37;;;;;;;13.80;6.05;;;;;;;2.44;100.00;97150.69;5057968;28;20587;-56
2023/02/22 00:41:04;;;;;;;14.63;5.82;;;;;;;2.45;100.00;97150.47;5054349;28;20049;-60
2023/02/22 00:43:31;;;;;;;9.68;5.47;;;;;;;2.42;100.00;97142.88;5055829;28;20101;-60
2023/02/22 00:45:57;;;;;;;11.40;5.30;;;;;;;2.42;100.00;97145.53;5055099;28;20136;-60
2023/02/22 00:48:24;;;;;;;10.77;5.90;;;;;;;2.39;100.00;97143.28;5056333;28;20041;-60
2023/02/22 00:50:54;;;;;;;10.70;5.18;;;;;;;2.40;100.00;97139.56;5056304;28;20056;-59
2023/02/22 00:53:23;;;;;;;11.23;5.50;;;;;;;2.36;100.00;97134.84;5057055;28;20041;-60
2023/02/22 00:55:51;;;;;;;9.65;5.20;;;;;;;2.29;100.00;97132.19;5054368;28;20048;-60
2023/02/22 00:58:17;;;;;;;11.80;6.60;;;;;;;2.25;100.00;97136.28;5053582;28;20115;-60
2023/02/22 01:00:44;;;;;;;11.02;6.00;;;;;;;2.17;100.00;97138.13;5053729;28;20098;-57
2023/02/22 01:03:16;;;;;;;15.15;6.32;;;;;;;2.19;100.00;97138.75;5060066;28;20041;-60
2023/02/22 01:05:43;;;;;;;11.20;6.07;;;;;;;2.15;100.00;97134.84;5061397;28;20151;-56
2023/02/22 01:08:12;;;;;;;10.77;5.03;;;;;;;2.07;100.00;97122.47;5064352;28;20631;-59
2023/02/22 01:10:39;;;;;;;10.48;5.18;;;;;;;2.15;100.00;97121.47;5055203;28;20637;-60
2023/02/22 01:13:08;;;;;;;11.43;5.30;;;;;;;2.17;100.00;97127.44;5058212;28;20450;-59
2023/02/22 01:15:37;;;;;;;14.60;5.57;;;;;;;2.26;100.00;97121.91;5051754;28;20119;-59
2023/02/22 01:18:04;;;;;;;9.18;5.38;;;;;;;2.34;100.00;97117.19;5053915;28;20435;-60
2023/02/22 01:20:31;;;;;;;10.80;5.07;;;;;;;2.38;100.00;97114.91;5057523;28;20041;-60
2023/02/22 01:23:02;;;;;;;11.80;5.18;;;;;;;2.41;100.00;97119.03;5056772;28;20029;-57
2023/02/22 01:25:30;;;;;;;12.38;5.93;;;;;;;2.47;100.00;97108.31;5049445;28;20099;-57
2023/02/22 01:27:59;;;;;;;14.43;5.65;;;;;;;2.47;100.00;97100.31;5050774;28;20044;-60
2023/02/22 01:30:33;;;;;;;10.75;5.53;;;;;;;2.49;100.00;97096.59;5061743;28;20032;-60
2023/02/22 01:33:01;;;;;;;10.02;6.07;;;;;;;2.46;100.00;97098.66;5056959;28;20531;-59
2023/02/22 01:35:31;;;;;;;10.70;5.50;;;;;;;2.37;100.00;97093.75;5054045;28;20096;-59
2023/02/22 01:37:58;;;;;;;12.35;5.43;;;;;;;2.31;100.00;97093.53;5058783;28;20040;-59
2023/02/22 01:40:28;;;;;;;9.15;4.60;;;;;;;2.32;100.00;97092.50;5058514;28;20205;-60
2023/02/22 01:42:58;;;;;;;8.77;4.57;;;;;;;2.30;100.00;97096.41;5054870;28;20469;-60
2023/02/22 01:45:34;;;;;;;9.43;4.63;;;;;;;2.47;100.00;97086.94;5056213;28;20504;-60
2023/02/22 01:48:11;;;;;;;10.70;4.15;;;;;;;2.65;100.00;97082.00;5058686;28;20426;-60
2023/02/22 01:50:42;;;;;;;9.85;5.50;;;;;;;2.80;100.00;97084.44;5061306;28;20041;-59
2023/02/22 01:53:14;;;;;;;8.57;5.05;;;;;;;2.89;100.00;97079.69;5052774;28;20047;-60
2023/02/22 01:55:41;;;;;;;9.20;4.55;;;;;;;2.89;100.00;97074.34;5059954;28;20106;-61
2023/02/22 01:58:08;;;;;;;10.18;5.57;;;;;;;2.81;100.00;97065.53;5052122;28;20136;-59
2023/02/22 02:00:35;;;;;;;12.30;4.78;;;;;;;2.83;100.00;97060.78;5058074;28;20036;-60
2023/02/22 02:03:09;;;;;;;9.80;5.07;;;;;;;2.79;100.00;97066.75;5054913;28;20131;-61
2023/02/22 02:05:37;;;;;;;8.32;4.30;;;;;;;2.79;100.00;97058.72;5052884;28;20045;-60
2023/02/22 02:08:25;;;;;;;9.30;4.85;;;;;;;2.84;100.00;97062.41;5058978;28;20032;-59
2023/02/22 02:10:54;;;;;;;6.57;4.05;;;;;;;2.94;100.00;97053.94;5050164;28;20451;-58
2023/02/22 02:13:21;;;;;;;10.02;4.70;;;;;;;2.93;100.00;97051.47;5049378;28;20056;-59
2023/02/22 02:15:48;;;;;;;13.30;4.82;;;;;;;2.86;100.00;97052.34;5060685;28;20588;-59
2023/02/22 02:18:15;;;;;;;11.88;4.15;;;;;;;2.81;100.00;97044.13;5056803;28;20567;-60
2023/02/22 02:20:55;;;;;;;9.30;3.92;;;;;;;2.77;100.00;97047.44;5056589;28;20479;-58
2023/02/22 02:23:49;;;;;;;11.88;4.90;;;;;;;2.79;100.00;97042.69;5050790;28;20263;-61
2023/02/22 02:26:35;;;;;;;7.88;4.05;;;;;;;2.95;100.00;97034.19;5055589;28;20041;-60
2023/02/22 02:29:30;;;;;;;8.30;4.55;;;;;;;3.08;100.00;97032.50;5052666;28;20341;-60
2023/02/22 02:32:05;;;;;;;8.40;4.10;;;;;;;3.07;100.00;97028.19;5050514;28;20067;-58
2023/02/22 02:34:37;;;;;;;10.88;4.53;;;;;;;3.11;100.00;97032.09;5057403;28;20044;-59
2023/02/22 02:37:13;;;;;;;8.15;4.70;;;;;;;3.06;100.00;97024.69;5057327;28;20044;-59
2023/02/22 02:39:40;;;;;;;8.30;4.10;;;;;;;3.14;100.00;97026.31;5051026;28;20399;-57
2023/02/22 02:42:11;;;;;;;8.55;4.00;;;;;;;3.22;100.00;97030.59;5058827;28;20068;-59
2023/02/22 02:44:53;;;;;;;7.35;4.10;;;;;;;3.15;100.00;97027.13;5057898;28;20470;-59
2023/02/22 02:47:26;;;;;;;10.40;4.22;;;;;;;3.12;100.00;97023.03;5061223;28;20063;-59
2023/02/22 02:50:14;;;;;;;10.20;4.03;;;;;;;3.30;100.00;97019.66;5062947;28;20047;-60
2023/02/22 02:52:43;;;;;;;13.00;5.43;;;;;;;3.31;100.00;97009.78;5056294;28;20503;-59
2023/02/22 02:55:10;;;;;;;10.65;4.47;;;;;;;3.21;100.00;97013.72;5061910;28;20135;-57
2023/02/22 02:57:40;;;;;;;8.75;4.05;;;;;;;3.16;100.00;97008.19;5059435;28;20118;-58
2023/02/22 03:00:23;;;;;;;9.40;4.85;;;;;;;3.17;100.00;97015.16;5054903;28;20107;-58
2023/02/22 03:02:52;;;;;;;9.07;4.50;;;;;;;3.17;100.00;97014.38;5059514;28;20506;-59
2023/02/22 03:06:00;;;;;;;8.52;4.10;;;;;;;3.24;100.00;97007.09;5059263;28;20044;-59
2023/02/22 03:08:30;;;;;;;10.82;4.53;;;;;;;3.26;100.00;96999.69;5056059;28;20049;-60
2023/02/22 03:11:13;;;;;;;9.07;4.55;;;;;;;3.29;100.00;96995.78;5060012;28;20047;-60
2023/02/22 03:14:02;;;;;;;10.15;4.15;;;;;;;3.47;100.00;97000.41;5059422;28;20060;-58
2023/02/22 03:16:36;;;;;;;7.40;3.95;;;;;;;3.47;100.00;96997.75;5072528;28;20072;-60
2023/02/22 03:19:24;;;;;;;10.43;4.72;;;;;;;3.48;100.00;96997.53;5053849;28;20041;-58
2023/02/22 03:21:57;;;;;;;10.48;4.80;;;;;;;3.49;100.00;96995.66;5055513;28;20039;-60
2023/02/22 03:24:52;;;;;;;7.07;4.43;;;;;;;3.52;100.00;96995.22;5058659;28;20138;-60
2023/02/22 03:27:30;;;;;;;9.45;4.65;;;;;;;3.46;100.00;96988.06;5057232;28;20046;-59
2023/02/22 03:30:04;;;;;;;7.55;4.57;;;;;;;3.59;100.00;96990.66;5057389;28;20377;-60
2023/02/22 03:32:36;;;;;;;13.77;4.88;;;;;;;3.72;100.00;96989.72;5060798;28;20399;-59
2023/02/22 03:35:11;;;;;;;8.70;3.65;;;;;;;3.76;100.00;96980.22;5060167;28;20055;-59
2023/02/22 03:37:43;;;;;;;9.88;4.32;;;;;;;3.87;100.00;96981.38;5060782;28;20123;-60
2023/02/22 03:40:15;;;;;;;;;;;;;;;3.85;100.00;96978.13;5061755;28;20498;-59
2023/02/22 03:42:51;;;;;;;10.90;4.30;;;;;;;3.82;100.00;96967.81;5057218;28;19920;-60
2023/02/22 03:45:23;;;;;;;9.57;4.50;;;;;;;3.84;100.00;96981.81;5057940;28;20094;-58
2023/02/22 03:47:59;;;;;;;9.85;4.60;;;;;;;3.76;100.00;96979.44;5057176;28;20109;-59
2023/02/22 03:50:34;;;;;;;7.85;4.22;;;;;;;3.80;100.00;96972.59;5055334;28;20207;-59
2023/02/22 03:53:03;;;;;;;8.80;4.55;;;;;;;3.73;100.00;96967.25;5054908;28;20106;-60
2023/02/22 03:55:32;;;;;;;9.23;4.50;;;;;;;3.73;100.00;96974.50;5052735;28;20215;-60
2023/02/22 03:58:03;;;;;;;8.55;4.50;;;;;;;3.70;100.00;96974.91;5053677;28;20057;-60
2023/02/22 04:00:32;;;;;;;8.68;4.35;;;;;;;3.80;100.00;96974.44;5054215;28;20053;-59
2023/02/22 04:02:59;;;;;;;8.60;4.15;;;;;;;3.83;100.00;96971.34;5056620;28;20048;-58
2023/02/22 04:05:26;;;;;;;9.85;4.78;;;;;;;3.80;100.00;96971.75;5056100;28;20120;-59
2023/02/22 04:07:54;;;;;;;8.77;4.70;;;;;;;3.69;100.00;96967.94;5063247;28;20064;-58
2023/02/22 04:10:22;;;;;;;9.07;4.40;;;;;;;3.73;100.00;96969.94;5057395;28;20172;-59
2023/02/22 04:12:49;;;;;;;8.27;4.30;;;;;;;3.77;100.00;96968.47;5051896;28;20090;-58
2023/02/22 04:15:20;;;;;;;9.73;4.35;;;;;;;3.95;100.00;96964.22;5063982;28;20086;-59
2023/02/22 04:17:48;;;;;;;8.48;4.45;;;;;;;3.99;100.00;96969.97;5057089;28;20052;-58
2023/02/22 04:20:18;;;;;;;10.40;4.20;;;;;;;3.98;100.00;96965.66;5057858;28;20282;-58
2023/02/22 04:22:58;;;;;;;10.25;4.80;;;;;;;3.98;99.64;96966.44;5053045;28;20158;-59
2023/02/22 04:25:25;;;;;;;7.22;4.28;;;;;;;4.07;99.32;96967.00;5052842;28;20377;-59
2023/02/22 04:27:52;;;;;;;10.73;4.43;;;;;;;4.07;99.04;96969.69;5060182;28;20458;-59
2023/02/22 04:30:29;;;;;;;7.53;4.30;;;;;;;4.11;98.56;96967.38;5054580;28;20051;-60
2023/02/22 04:32:56;;;;;;;9.60;4.25;;;;;;;4.03;97.96;96963.94;5058031;28;20052;-63
2023/02/22 04:35:23;;;;;;;11.00;4.47;;;;;;;3.94;98.97;96965.25;5061369;28;20052;-61
2023/02/22 04:37:51;;;;;;;8.60;4.50;;;;;;;3.86;99.10;96962.84;5057772;28;20045;-60
2023/02/22 04:40:17;;;;;;;8.32;4.30;;;;;;;3.82;99.51;96970.50;5061911;28;20051;-61
2023/02/22 04:42:45;;;;;;;9.40;4.15;;;;;;;3.70;98.71;96967.72;5057871;28;20039;-58
2023/02/22 04:45:12;;;;;;;6.85;3.78;;;;;;;3.59;99.86;96971.91;5063077;28;20098;-58
2023/02/22 04:47:39;;;;;;;9.52;4.18;;;;;;;3.50;100.00;96976.69;5061015;28;20043;-60
2023/02/22 04:50:08;;;;;;;8.00;4.47;;;;;;;3.44;100.00;96972.22;5054032;28;20446;-61
2023/02/22 04:52:34;;;;;;;7.30;3.53;;;;;;;3.40;100.00;96976.38;5054829;28;20102;-60
2023/02/22 04:55:01;;;;;;;8.35;3.88;;;;;;;3.29;100.00;96966.34;5061794;28;20523;-61
2023/02/22 04:57:27;;;;;;;12.25;5.40;;;;;;;3.21;100.00;96965.56;5060351;28;20252;-58
2023/02/22 04:59:54;;;;;;;9.45;4.50;;;;;;;3.02;100.00;96969.16;5051103;28;20446;-61
2023/02/22 05:02:22;;;;;;;10.20;4.63;;;;;;;3.14;100.00;96970.13;5063932;28;20411;-59
2023/02/22 05:04:49;;;;;;;8.23;4.13;;;;;;;3.25;100.00;96958.72;5066044;28;20041;-60
2023/02/22 05:07:16;;;;;;;9.13;4.45;;;;;;;3.20;100.00;96968.44;5064399;28;20110;-60
2023/02/22 05:09:43;;;;;;;11.73;4.78;;;;;;;3.13;100.00;96960.44;5068625;28;20052;-60
2023/02/22 05:12:09;;;;;;;12.60;6.10;;;;;;;3.04;100.00;96967.09;5066513;28;20040;-61
2023/02/22 05:14:36;;;;;;;16.52;5.85;;;;;;;2.83;100.00;96955.66;5072021;28;20511;-60
2023/02/22 05:17:03;;;;;;;13.32;5.15;;;;;;;2.77;100.00;96960.03;5067398;28;20127;-61
2023/02/22 05:19:29;;;;;;;10.45;5.40;;;;;;;2.71;100.00;96961.69;5065980;28;20111;-60
2023/02/22 05:21:56;;;;;;;12.63;5.50;;;;;;;2.66;100.00;96953.47;5069453;28;20042;-58
2023/02/22 05:24:23;;;;;;;12.00;5.70;;;;;;;2.60;100.00;96957.81;5061893;28;20052;-59
2023/02/22 05:26:50;;;;;;;11.82;5.68;;;;;;;2.55;100.00;96956.81;5063696;28;20084;-60
2023/02/22 05:29:16;;;;;;;10.23;5.82;;;;;;;2.56;100.00;96953.91;5062709;28;20033;-58
2023/02/22 05:31:43;;;;;;;11.40;5.90;;;;;;;2.64;100.00;96949.34;5068807;28;20037;-59
2023/02/22 05:34:09;;;;;;;9.43;5.25;;;;;;;2.65;100.00;96953.69;5065813;28;20037;-61
2023/02/22 05:36:36;;;;;;;13.00;4.90;;;;;;;2.65;100.00;96951.81;5058912;28;20044;-57
2023/02/22 05:39:04;;;;;;;10.10;4.88;;;;;;;2.57;100.00;96952.06;5064225;28;20041;-57
2023/02/22 05:41:30;;;;;;;10.90;4.80;;;;;;;2.58;100.00;96951.84;5068288;28;20347;-60
2023/02/22 05:43:57;;;;;;;8.43;4.30;;;;;;;2.56;100.00;96950.41;5068098;28;20051;-58
2023/02/22 05:46:24;;;;;;;8.55;4.28;;;;;;;2.72;100.00;96952.63;5069210;28;20044;-59
2023/02/22 05:48:50;;;;;;;11.93;5.18;;;;;;;2.89;100.00;96951.31;5067062;28;20041;-60
2023/02/22 05:51:18;;;;;;;9.23;4.78;;;;;;;2.91;100.00;96951.94;5059566;28;20470;-58
2023/02/22 05:53:45;;;;;;;9.23;4.20;;;;;;;3.01;100.00;96949.63;5060644;28;20071;-60
2023/02/22 05:56:11;;;;;;;12.27;5.20;;;;;;;2.99;100.00;96949.81;5063563;28;20040;-61
2023/02/22 05:58:38;;;;;;;10.32;4.97;;;;;;;2.89;100.00;96949.47;5064651;28;20465;-57
2023/02/22 06:01:04;;;;;;;9.43;4.43;;;;;;;2.84;100.00;96942.06;5073914;28;20487;-61
2023/02/22 06:03:31;;;;;;;10.90;5.18;;;;;;;2.75;100.00;96943.34;5062695;28;20106;-60
2023/02/22 06:05:57;;;;;;;7.82;4.47;;;;;;;2.78;100.00;96950.97;5061229;28;20289;-60
2023/02/22 06:08:24;;;;;;;8.43;4.20;;;;;;;2.82;100.00;96948.66;5062356;28;20503;-60
2023/02/22 06:10:50;;;;;;;9.13;4.40;;;;;;;2.91;100.00;96950.06;5074409;28;20082;-61
2023/02/22 06:13:17;;;;;;;12.32;5.15;;;;;;;2.86;100.00;96945.38;5069830;28;20116;-60
2023/02/22 06:15:43;;;;;;;16.60;4.88;;;;;;;2.89;100.00;96954.81;5068370;28;20478;-59
2023/02/22 06:18:10;;;;;;;8.90;4.93;;;;;;;2.82;100.00;96951.34;5065483;28;20036;-61
2023/02/22 06:20:36;;;;;;;11.80;4.72;;;;;;;2.75;100.00;96956.72;5063713;28;20555;-61
2023/02/22 06:23:03;;;;;;;12.40;5.32;;;;;;;2.71;100.00;96951.00;5058952;28;20474;-59
2023/02/22 06:25:30;;;;;;;9.55;4.97;;;;;;;2.73;100.00;96958.81;5059204;28;20048;-60
2023/02/22 06:27:58;;;;;;;10.85;4.78;;;;;;;2.42;100.00;96957.66;5026417;28;1077588;-61
2023/02/22 06:30:26;;;;;;;11.68;5.10;;;;;;;1.95;100.00;96958.53;5064442;28;20231;-61
2023/02/22 06:32:52;;;;;;;11.35;4.72;;;;;;;1.84;100.00;96964.53;5056669;28;20037;-61
2023/02/22 06:35:19;;;;;;;10.32;4.80;;;;;;;2.05;100.00;96966.97;5066471;28;20053;-60
2023/02/22 06:37:46;;;;;;;11.45;4.68;;;;;;;2.07;100.00;96969.44;5062449;28;20040;-60
2023/02/22 06:40:14;;;;;;;11.55;5.18;;;;;;;2.06;100.00;96970.44;5062440;28;20048;-59
2023/02/22 06:42:40;;;;;;;12.00;4.60;;;;;;;2.18;100.00;96971.47;5065089;28;20052;-61
2023/02/22 06:45:08;;;;;;;11.15;5.00;;;;;;;2.14;100.00;96974.78;5059382;28;20048;-60
2023/02/22 06:47:39;;;;;;;10.25;4.70;;;;;;;2.23;100.00;96978.88;5060416;28;20068;-59
2023/02/22 06:50:07;;;;;;;10.55;4.47;;;;;;;2.17;100.00;96979.69;5059759;28;20499;-61
2023/02/22 06:52:34;;;;;;;13.10;4.68;;;;;;;2.13;100.00;96981.97;5058531;28;20082;-61
2023/02/22 06:55:00;;;;;;;9.98;4.82;;;;;;;2.19;100.00;96983.81;5058769;28;20417;-59
2023/02/22 06:57:27;;;;;;;8.32;4.93;;;;;;;2.10;100.00;96984.22;5059201;28;20049;-58
2023/02/22 06:59:53;;;;;;;8.40;5.20;;;;;;;2.12;100.00;96984.81;5054494;28;20040;-58
2023/02/22 07:02:20;;;;;;;14.13;5.70;;;;;;;2.13;100.00;96986.50;5055496;28;20089;-59
2023/02/22 07:04:46;;;;;;;9.98;5.07;;;;;;;2.12;100.00;96985.66;5054776;28;20128;-58
2023/02/22 07:07:13;;;;;;;14.45;5.75;;;;;;;2.18;100.00;96989.34;5057197;28;20116;-59
2023/02/22 07:09:39;;;;;;;12.45;5.85;;;;;;;2.21;100.00;96991.59;5054956;28;20047;-59
2023/02/22 07:12:06;;;;;;;12.82;6.15;;;;;;;2.32;100.00;96988.31;5059676;28;20044;-60
2023/02/22 07:14:33;;;;;;;11.75;6.15;;;;;;;2.49;100.00;96998.56;5056569;28;20119;-60
2023/02/22 07:16:59;;;;;;;10.93;6.70;;;;;;;2.69;100.00;96998.50;5054501;28;20060;-58
2023/02/22 07:19:25;;;;;;;14.57;6.28;;;;;;;3.04;100.00;97001.84;5055890;28;20547;-58
2023/02/22 07:21:57;;;;;;;12.32;6.30;;;;;;;3.21;100.00;97010.22;5054347;28;20072;-60
2023/02/22 07:24:27;;;;;;;12.25;5.78;;;;;;;3.33;100.00;97010.38;5051551;28;20116;-60
2023/02/22 07:26:53;;;;;;;11.98;4.90;;;;;;;3.44;100.00;97011.53;5053412;28;20056;-60
2023/02/22 07:29:21;;;;;;;10.00;5.05;;;;;;;3.63;100.00;97015.97;5059844;28;20055;-59
2023/02/22 07:31:48;;;;;;;13.43;5.75;;;;;;;3.74;100.00;97008.25;5061202;28;20086;-60
2023/02/22 07:34:14;;;;;;;10.82;5.80;;;;;;;3.67;100.00;97016.34;5064940;28;20052;-59
2023/02/22 07:36:41;;;;;;;12.68;6.10;;;;;;;3.74;100.00;97013.63;5060814;28;20054;-60
2023/02/22 07:39:07;;;;;;;9.43;5.53;;;;;;;3.76;100.00;97016.91;5061897;28;20054;-59
2023/02/22 07:41:34;;;;;;;10.15;5.78;;;;;;;3.84;100.00;97015.81;5065615;28;20254;-60
2023/02/22 07:44:00;;;;;;;10.55;5.57;;;;;;;3.98;100.00;97003.16;5062835;28;20077;-58
2023/02/22 07:46:27;;;;;;;9.63;5.38;;;;;;;4.11;100.00;97011.06;5063847;28;20564;-59
2023/02/22 07:48:53;;;;;;;9.68;5.40;;;;;;;4.27;99.84;97006.19;5072830;28;20090;-59
2023/02/22 07:51:20;;;;;;;10.82;5.07;;;;;;;4.43;99.43;97005.63;5066444;28;20120;-59
2023/02/22 07:53:47;;;;;;;8.60;4.32;;;;;;;4.62;97.65;97002.16;5063625;28;20040;-60
2023/02/22 07:56:13;;;;;;;10.63;4.63;;;;;;;4.68;96.80;96999.38;5069155;28;20546;-60
2023/02/22 07:58:40;;;;;;;10.77;4.40;;;;;;;4.72;96.79;97007.78;5063255;28;20417;-60
2023/02/22 08:01:06;;;;;;;8.57;4.78;;;;;;;4.86;96.18;97005.78;5066923;28;20064;-59
2023/02/22 08:03:35;;;;;;;11.40;4.75;;;;;;;4.91;95.82;97003.25;5068522;28;20583;-59
2023/02/22 08:06:04;;;;;;;8.63;4.15;;;;;;;5.05;96.10;97000.44;5073900;28;20468;-58
2023/02/22 08:08:31;;;;;;;8.80;4.53;;;;;;;5.23;95.72;97002.25;5064146;28;20628;-60
2023/02/22 08:10:57;;;;;;;10.13;4.72;;;;;;;5.43;94.85;97002.00;5078156;28;20040;-60
2023/02/22 08:13:24;;;;;;;9.40;4.68;;;;;;;5.51;94.23;97005.41;5074886;28;20064;-58
2023/02/22 08:15:52;;;;;;;9.63;4.15;;;;;;;5.60;93.70;97002.16;5078371;28;20106;-58
2023/02/22 08:18:20;;;;;;;9.57;4.22;;;;;;;5.76;93.81;96994.50;5064665;28;20037;-60
2023/02/22 08:20:48;;;;;;;11.60;4.80;;;;;;;5.96;93.70;96998.72;5066922;28;20044;-60
2023/02/22 08:23:16;;;;;;;9.10;4.47;;;;;;;6.14;92.80;96999.72;5067910;28;20044;-58
2023/02/22 08:25:43;;;;;;;8.63;4.47;;;;;;;6.33;92.58;97000.44;5066438;28;20075;-58
2023/02/22 08:28:12;;;;;;;7.82;3.80;;;;;;;6.54;91.82;96993.66;5063480;28;20606;-60
2023/02/22 08:30:39;;;;;;;7.80;4.22;;;;;;;6.73;91.63;97004.28;5064071;28;20079;-60
2023/02/22 08:33:06;;;;;;;10.15;3.97;;;;;;;6.93;90.19;97000.38;5069006;28;20094;-59
2023/02/22 08:35:33;;;;;;;7.88;3.70;;;;;;;7.11;88.28;97004.78;5072103;28;20106;-59
2023/02/22 08:38:03;;;;;;;6.85;3.75;;;;;;;7.27;87.85;97005.91;5061712;28;20290;-59
2023/02/22 08:40:32;;;;;;;7.10;3.78;;;;;;;7.42;86.97;96995.41;5067930;28;20115;-61
2023/02/22 08:43:00;;;;;;;8.05;3.67;;;;;;;7.57;86.84;97001.31;5060800;28;20240;-60
2023/02/22 08:45:27;;;;;;;8.20;4.45;;;;;;;7.73;85.84;97002.41;5069712;28;20804;-61
2023/02/22 08:47:54;;;;;;;8.93;4.80;;;;;;;7.83;84.88;97002.59;5067121;28;20040;-61
2023/02/22 08:50:29;;;;;;;9.45;4.30;;;;;;;7.93;84.45;96999.28;5063754;28;20406;-61
2023/02/22 08:52:58;;;;;;;16.90;4.80;;;;;;;8.06;83.08;96998.94;5065096;28;20482;-60
2023/02/22 08:55:28;;;;;;;10.15;4.30;;;;;;;8.19;82.46;96997.00;5059777;28;20049;-61
2023/02/22 08:57:54;;;;;;;7.55;4.20;;;;;;;8.28;82.10;96986.59;5064522;28;20085;-61
2023/02/22 09:00:24;;;;;;;7.00;3.78;;;;;;;8.36;81.22;96985.38;5062290;28;20044;-61
2023/02/22 09:02:51;;;;;;;8.32;3.83;;;;;;;8.37;80.18;96995.91;5057955;28;20080;-61
2023/02/22 09:05:18;;;;;;;8.38;4.38;;;;;;;8.46;79.74;96986.34;5063350;28;20640;-61
2023/02/22 09:07:45;;;;;;;9.40;3.97;;;;;;;8.55;79.17;96994.03;5072671;28;20075;-61
2023/02/22 09:10:23;;;;;;;6.25;3.08;;;;;;;8.68;79.03;96990.16;5074370;28;20048;-60
2023/02/22 09:12:51;;;;;;;9.23;3.47;;;;;;;8.78;78.85;96984.09;5072304;28;20718;-61
2023/02/22 09:15:17;;;;;;;8.68;3.92;;;;;;;8.95;78.41;96978.63;5063074;28;20098;-61
2023/02/22 09:17:44;;;;;;;7.72;3.33;;;;;;;9.14;77.58;96981.03;5068012;28;20676;-61
2023/02/22 09:20:11;;;;;;;6.75;3.50;;;;;;;9.25;76.19;96980.06;5063737;28;20374;-59
2023/02/22 09:22:38;;;;;;;8.68;4.05;;;;;;;9.29;75.52;96981.19;5063645;28;20530;-61
2023/02/22 09:25:06;;;;;;;7.32;4.03;;;;;;;9.39;74.48;96980.47;5063322;28;20239;-60
2023/02/22 09:27:42;;;;;;;7.30;3.90;;;;;;;9.54;73.89;96984.44;5063899;28;20066;-61
2023/02/22 09:30:48;;;;;;;6.82;3.83;;;;;;;9.81;74.34;96973.59;5062875;28;20453;-61
2023/02/22 09:33:17;;;;;;;9.13;3.88;;;;;;;9.96;72.50;96982.91;5041257;28;20442;-59
2023/02/22 09:35:45;;;;;;;6.28;3.65;;;;;;;10.12;72.03;96983.84;5041173;28;20053;-61
2023/02/22 09:38:19;;;;;;;7.90;3.40;;;;;;;10.30;71.04;96981.81;5049733;28;20064;-59
2023/02/22 09:40:53;;;;;;;6.95;4.05;;;;;;;10.12;70.30;96983.84;5066943;28;20086;-61
2023/02/22 09:43:44;;;;;;;8.23;4.53;;;;;;;10.17;69.96;96973.06;5062764;28;20044;-60
2023/02/22 09:46:29;;;;;;;9.53;4.47;;;;;;;10.22;69.19;96972.28;5064080;28;20048;-61
2023/02/22 09:49:04;;;;;;;5.70;3.83;;;;;;;10.39;69.03;96969.41;5059577;28;20110;-61
2023/02/22 09:51:34;;;;;;;10.27;4.32;;;;;;;10.46;68.68;96970.03;5060892;28;20102;-61
2023/02/22 09:54:03;;;;;;;9.05;4.05;;;;;;;10.60;68.12;96961.47;5066365;28;20408;-61
2023/02/22 09:56:32;;;;;;;9.43;4.47;;;;;;;10.63;67.22;96967.19;5063532;28;20135;-62
2023/02/22 09:59:02;;;;;;;10.55;4.60;;;;;;;10.74;66.88;96965.34;5062799;28;20045;-62
2023/02/22 10:01:39;;;;;;;7.47;4.55;;;;;;;10.86;66.50;96967.00;5063918;28;20045;-62
2023/02/22 10:04:23;;;;;;;9.95;4.85;;;;;;;11.05;66.54;96970.06;5059096;28;20041;-61
2023/02/22 10:07:10;;;;;;;9.88;5.72;;;;;;;11.13;67.47;96966.84;5058442;28;20543;-61
2023/02/22 10:09:43;;;;;;;10.15;5.93;;;;;;;11.21;66.10;96970.97;5065913;28;20048;-61
2023/02/22 10:12:18;;;;;;;10.23;6.03;;;;;;;11.29;66.85;96965.03;5065099;28;20048;-62
2023/02/22 10:14:52;;;;;;;11.90;6.10;;;;;;;11.29;67.13;96967.72;5062656;28;20040;-61
2023/02/22 10:17:28;;;;;;;15.65;6.88;;;;;;;11.43;65.21;96965.31;5062410;28;20049;-62
2023/02/22 10:20:20;;;;;;;12.65;6.15;;;;;;;11.43;65.90;96964.50;5059501;28;20679;-62
2023/02/22 10:23:08;;;;;;;13.30;6.00;;;;;;;11.45;64.62;96959.63;5058734;28;20405;-61
2023/02/22 10:25:37;;;;;;;10.05;6.00;;;;;;;11.55;64.19;96961.53;5062002;28;20084;-61
2023/02/22 10:28:18;;;;;;;8.48;5.10;;;;;;;11.62;64.18;96953.97;5066349;28;20060;-62
2023/02/22 10:30:55;;;;;;;10.40;5.13;;;;;;;11.68;64.16;96960.19;5062132;28;20046;-62
2023/02/22 10:33:36;;;;;;;10.43;5.20;;;;;;;11.82;63.15;96957.78;5062823;28;20080;-62
2023/02/22 10:36:03;;;;;;;12.73;6.32;;;;;;;11.67;63.68;96950.44;5059010;28;20349;-62
2023/02/22 10:38:32;;;;;;;10.48;5.47;;;;;;;11.82;63.64;96957.78;5061329;28;20131;-62
2023/02/22 10:41:19;;;;;;;13.15;6.05;;;;;;;11.95;62.47;96949.09;5066227;28;20044;-61
2023/02/22 10:43:46;;;;;;;10.93;7.03;;;;;;;11.87;63.89;96954.25;5065401;28;20074;-62
2023/02/22 10:46:19;;;;;;;12.38;7.60;;;;;;;11.96;63.54;96953.47;5066736;28;20036;-61
2023/02/22 10:48:50;;;;;;;10.73;6.63;;;;;;;12.00;63.31;96952.88;5065073;28;20040;-61
2023/02/22 10:51:16;;;;;;;13.10;6.83;;;;;;;12.09;62.86;96941.25;5062326;28;20052;-61
2023/02/22 10:53:51;;;;;;;11.30;7.32;;;;;;;12.13;63.62;96948.88;5064264;28;20059;-61
2023/02/22 10:56:21;;;;;;;13.23;7.60;;;;;;;12.03;63.93;96945.03;5062003;28;20045;-62
2023/02/22 10:58:53;;;;;;;11.50;6.97;;;;;;;12.10;64.17;96940.16;5062399;28;20574;-61
2023/02/22 11:01:22;;;;;;;;;;;;;;;12.18;63.26;96943.44;5060620;28;20049;-62
2023/02/22 11:04:11;;;;;;;12.05;7.50;;;;;;;12.28;63.76;96939.88;5067311;28;19927;-61
2023/02/22 11:06:39;;;;;;;11.48;7.28;;;;;;;12.54;63.18;96942.56;5061928;28;20514;-62
2023/02/22 11:09:12;;;;;;;14.23;8.00;;;;;;;12.46;63.58;96938.50;5059955;28;20041;-62
2023/02/22 11:11:44;;;;;;;13.68;6.97;;;;;;;12.75;62.46;96935.16;5073588;28;20390;-61
2023/02/22 11:14:23;;;;;;;9.88;6.40;;;;;;;12.81;61.30;96938.66;5075019;28;20044;-62
2023/02/22 11:16:52;;;;;;;11.32;6.97;;;;;;;12.79;61.39;96930.78;5073005;28;20051;-61
2023/02/22 11:19:30;;;;;;;13.10;7.38;;;;;;;12.80;61.36;96937.88;5066431;28;20111;-61
2023/02/22 11:22:10;;;;;;;17.70;8.65;;;;;;;12.72;61.77;96933.00;5055325;28;20052;-61
2023/02/22 11:24:52;;;;;;;13.82;7.38;;;;;;;12.46;62.67;96928.44;5065319;28;20092;-61
2023/02/22 11:27:30;;;;;;;13.10;7.18;;;;;;;12.54;62.45;96926.25;5065610;28;20480;-62
2023/02/22 11:30:06;;;;;;;11.13;7.38;;;;;;;12.71;61.81;96920.50;5065346;28;20408;-62
2023/02/22 11:32:35;;;;;;;11.52;7.88;;;;;;;12.70;61.29;96914.25;5063308;28;20488;-62
2023/02/22 11:35:28;;;;;;;15.30;8.23;;;;;;;12.85;61.23;96918.00;5076548;28;20070;-62
2023/02/22 11:38:24;;;;;;;11.93;7.03;;;;;;;12.78;60.62;96917.50;5065792;28;20117;-61
2023/02/22 11:41:29;;;;;;;12.85;7.18;;;;;;;12.71;60.63;96909.63;5051926;28;20059;-61
2023/02/22 11:44:13;;;;;;;11.65;7.35;;;;;;;12.73;61.76;96912.91;5067942;28;20452;-61
2023/02/22 11:46:41;;;;;;;11.35;7.35;;;;;;;12.71;62.67;96899.59;5067800;28;20042;-61
2023/02/22 11:49:13;;;;;;;14.43;7.68;;;;;;;12.73;62.19;96902.03;5064568;28;20051;-61